^^
Station Historical Data
Daily Summary for June 16, 2021 Units:  English    Metric   Both
Daily Weekly Monthly Yearly
  High: Low: Average:
Temperature: 69.1 °F 59.8 °F 63.6 °F
Dew Point: 52 °F 45 °F 48.9 °F
Humidity: 73% 44% 59%
Wind Speed: 6mph 1mph 2.8mph
Wind Gust: 13mph - -
Wind- - ESE
Pressure: 30.11 in 30.02 in -
Precipitation: 0.00 in    
 
 
Tabular Data for June 16, 2021
Time Temperature Dew Point Pressure Wind Wind Speed Wind Gust Humidity Rainfall Rate (Hourly) solar
00:00 64.8 °F 50.1 °F 30.02 in NNE 2 mph 2 mph 59% 0.00 in 0 W/m2
00:05 64.8 °F 51 °F 30.02 in WSW 2 mph 2 mph 61% 0.00 in 0 W/m2
00:10 64.9 °F 50.7 °F 30.02 in WSW 3 mph 3 mph 60% 0.00 in 0 W/m2
00:15 64.9 °F 50.2 °F 30.02 in North 3 mph 11 mph 59% 0.00 in 0 W/m2
00:20 64.9 °F 49.8 °F 30.02 in ENE 4 mph 4 mph 58% 0.00 in 0 W/m2
00:25 65 °F 50.3 °F 30.02 in SSW 5 mph 5 mph 59% 0.00 in 0 W/m2
00:30 65 °F 50.3 °F 30.02 in East 5 mph 5 mph 59% 0.00 in 0 W/m2
00:35 65 °F 49.9 °F 30.03 in NNE 4 mph 5 mph 58% 0.00 in 0 W/m2
00:40 65 °F 50.8 °F 30.03 in NNE 4 mph 8 mph 60% 0.00 in 0 W/m2
00:45 64.9 °F 50.7 °F 30.02 in SE 4 mph 8 mph 60% 0.00 in 0 W/m2
00:50 64.9 °F 51.1 °F 30.02 in NW 5 mph 5 mph 61% 0.00 in 0 W/m2
00:55 64.8 °F 51 °F 30.02 in NNE 5 mph 5 mph 61% 0.00 in 0 W/m2
01:00 64.7 °F 50.9 °F 30.03 in NNW 5 mph 5 mph 61% 0.00 in 0 W/m2
01:05 64.5 °F 51.2 °F 30.03 in North 5 mph 5 mph 62% 0.00 in 0 W/m2
01:10 64.5 °F 51.2 °F 30.03 in East 4 mph 4 mph 62% 0.00 in 0 W/m2
01:15 64.3 °F 51 °F 30.03 in North 4 mph 4 mph 62% 0.00 in 0 W/m2
01:20 64.1 °F 49.9 °F 30.03 in SSE 4 mph 4 mph 60% 0.00 in 0 W/m2
01:25 64.1 °F 50.4 °F 30.03 in NNW 5 mph 10 mph 61% 0.00 in 0 W/m2
01:30 64 °F 49.8 °F 30.03 in NNE 5 mph 8 mph 60% 0.00 in 0 W/m2
01:35 63.9 °F 49.7 °F 30.03 in East 5 mph 8 mph 60% 0.00 in 0 W/m2
01:40 63.8 °F 49.6 °F 30.02 in North 5 mph 6 mph 60% 0.00 in 0 W/m2
01:45 63.7 °F 50 °F 30.03 in SE 5 mph 6 mph 61% 0.00 in 0 W/m2
01:50 63.6 °F 49.9 °F 30.03 in East 5 mph 6 mph 61% 0.00 in 0 W/m2
01:55 63.5 °F 49.8 °F 30.02 in NNE 5 mph 12 mph 61% 0.00 in 0 W/m2
02:00 63.4 °F 49.7 °F 30.02 in NNE 6 mph 7 mph 61% 0.00 in 0 W/m2
02:05 63.3 °F 49.6 °F 30.03 in WNW 6 mph 7 mph 61% 0.00 in 0 W/m2
02:10 63.1 °F 49.4 °F 30.03 in West 5 mph 5 mph 61% 0.00 in 0 W/m2
02:15 63.1 °F 49.4 °F 30.02 in ESE 5 mph 5 mph 61% 0.00 in 0 W/m2
02:20 62.9 °F 49.7 °F 30.02 in NE 5 mph 5 mph 62% 0.00 in 0 W/m2
02:25 62.9 °F 49.7 °F 30.02 in North 5 mph 13 mph 62% 0.00 in 0 W/m2
02:30 62.8 °F 50 °F 30.03 in NE 5 mph 5 mph 63% 0.00 in 0 W/m2
02:35 62.7 °F 50.3 °F 30.03 in NNE 5 mph 5 mph 64% 0.00 in 0 W/m2
02:40 62.6 °F 49.8 °F 30.03 in NE 5 mph 5 mph 63% 0.00 in 0 W/m2
02:45 62.5 °F 50.2 °F 30.03 in NNE 5 mph 5 mph 64% 0.00 in 0 W/m2
02:50 62.4 °F 50.1 °F 30.03 in North 5 mph 5 mph 64% 0.00 in 0 W/m2
02:55 62.2 °F 49.9 °F 30.03 in ENE 4 mph 5 mph 64% 0.00 in 0 W/m2
03:00 62.2 °F 50.3 °F 30.03 in NNE 4 mph 4 mph 65% 0.00 in 0 W/m2
03:05 62.1 °F 50.2 °F 30.03 in NNW 4 mph 6 mph 65% 0.00 in 0 W/m2
03:10 61.9 °F 50 °F 30.03 in NE 4 mph 4 mph 65% 0.00 in 0 W/m2
03:15 61.9 °F 50.4 °F 30.04 in WSW 4 mph 4 mph 66% 0.00 in 0 W/m2
03:20 61.7 °F 50.2 °F 30.04 in North 3 mph 3 mph 66% 0.00 in 0 W/m2
03:25 61.5 °F 50.4 °F 30.04 in NNE 4 mph 6 mph 67% 0.00 in 0 W/m2
03:30 61.3 °F 50.2 °F 30.04 in ENE 4 mph 4 mph 67% 0.00 in 0 W/m2
03:35 61.2 °F 50.6 °F 30.04 in ENE 4 mph 4 mph 68% 0.00 in 0 W/m2
03:40 61.2 °F 50.9 °F 30.04 in East 4 mph 4 mph 69% 0.00 in 0 W/m2
03:45 61.2 °F 50.9 °F 30.04 in East 4 mph 4 mph 69% 0.00 in 0 W/m2
03:50 61 °F 50.8 °F 30.04 in ESE 3 mph 5 mph 69% 0.00 in 0 W/m2
03:55 61 °F 51.1 °F 30.04 in NNW 4 mph 5 mph 70% 0.00 in 0 W/m2
04:00 60.9 °F 51.4 °F 30.04 in East 4 mph 4 mph 71% 0.00 in 0 W/m2
04:05 60.8 °F 51 °F 30.04 in East 4 mph 4 mph 70% 0.00 in 0 W/m2
04:10 60.7 °F 51.2 °F 30.04 in NE 4 mph 4 mph 71% 0.00 in 0 W/m2
04:15 60.7 °F 51.2 °F 30.04 in NE 4 mph 4 mph 71% 0.00 in 0 W/m2
04:20 60.7 °F 51.2 °F 30.04 in ENE 3 mph 3 mph 71% 0.00 in 0 W/m2
04:25 60.7 °F 51.6 °F 30.05 in ENE 3 mph 3 mph 72% 0.00 in 0 W/m2
04:30 60.7 °F 52 °F 30.04 in North 3 mph 3 mph 73% 0.00 in 0 W/m2
04:35 60.7 °F 51.2 °F 30.05 in ENE 3 mph 3 mph 71% 0.00 in 0 W/m2
04:40 60.7 °F 49.7 °F 30.05 in NE 3 mph 3 mph 67% 0.00 in 0 W/m2
04:45 60.7 °F 48.4 °F 30.04 in ENE 3 mph 4 mph 64% 0.00 in 0 W/m2
04:50 60.7 °F 48 °F 30.05 in NE 3 mph 3 mph 63% 0.00 in 0 W/m2
04:55 60.7 °F 47.6 °F 30.05 in ENE 3 mph 3 mph 62% 0.00 in 0 W/m2
05:00 60.8 °F 47.7 °F 30.05 in ENE 3 mph 4 mph 62% 0.00 in 0 W/m2
05:05 60.8 °F 46.8 °F 30.06 in East 3 mph 5 mph 60% 0.00 in 0 W/m2
05:10 60.8 °F 47.3 °F 30.06 in NE 3 mph 4 mph 61% 0.00 in 0 W/m2
05:15 60.9 °F 47.4 °F 30.06 in NE 3 mph 4 mph 61% 0.00 in 0 W/m2
05:20 60.8 °F 47.3 °F 30.06 in NW 3 mph 3 mph 61% 0.00 in 0 W/m2
05:25 60.8 °F 46.8 °F 30.06 in NNE 3 mph 3 mph 60% 0.00 in 0 W/m2
05:30 60.8 °F 46.8 °F 30.06 in East 3 mph 3 mph 60% 0.00 in 0 W/m2
05:35 60.8 °F 46.8 °F 30.06 in NNE 3 mph 6 mph 60% 0.00 in 0 W/m2
05:40 60.7 °F 46.3 °F 30.06 in East 3 mph 3 mph 59% 0.00 in 0 W/m2
05:45 60.7 °F 46.7 °F 30.06 in SE 3 mph 3 mph 60% 0.00 in 0 W/m2
05:50 60.6 °F 46.6 °F 30.06 in East 2 mph 2 mph 60% 0.00 in 5 W/m2
05:55 60.6 °F 47.1 °F 30.06 in ENE 2 mph 3 mph 61% 0.00 in 7 W/m2
06:00 60.5 °F 47 °F 30.06 in NE 2 mph 2 mph 61% 0.00 in 9 W/m2
06:05 60.5 °F 47.4 °F 30.07 in ESE 2 mph 2 mph 62% 0.00 in 11 W/m2
06:10 60.4 °F 47.3 °F 30.07 in NE 2 mph 2 mph 62% 0.00 in 12 W/m2
06:15 60.4 °F 47.3 °F 30.06 in ENE 2 mph 2 mph 62% 0.00 in 14 W/m2
06:20 60.3 °F 47.6 °F 30.07 in NNE 2 mph 2 mph 63% 0.00 in 16 W/m2
06:25 60.2 °F 47.6 °F 30.06 in East 2 mph 5 mph 63% 0.00 in 19 W/m2
06:30 60.2 °F 47.6 °F 30.07 in East 3 mph 3 mph 63% 0.00 in 21 W/m2
06:35 60.1 °F 47.9 °F 30.07 in ENE 2 mph 3 mph 64% 0.00 in 23 W/m2
06:40 60 °F 47.8 °F 30.07 in East 2 mph 2 mph 64% 0.00 in 25 W/m2
06:45 60 °F 47.4 °F 30.07 in ENE 2 mph 2 mph 63% 0.00 in 30 W/m2
06:50 59.9 °F 47.7 °F 30.07 in East 2 mph 2 mph 64% 0.00 in 26 W/m2
06:55 59.9 °F 47.7 °F 30.07 in NE 2 mph 4 mph 64% 0.00 in 28 W/m2
07:00 59.8 °F 47.6 °F 30.07 in NE 2 mph 2 mph 64% 0.00 in 30 W/m2
07:05 59.8 °F 47.6 °F 30.07 in East 2 mph 2 mph 64% 0.00 in 32 W/m2
07:10 59.8 °F 48 °F 30.07 in East 2 mph 2 mph 65% 0.00 in 35 W/m2
07:15 59.8 °F 48 °F 30.07 in ENE 2 mph 2 mph 65% 0.00 in 33 W/m2
07:20 59.8 °F 48.4 °F 30.07 in East 2 mph 4 mph 66% 0.00 in 35 W/m2
07:25 59.8 °F 48.4 °F 30.08 in ENE 2 mph 4 mph 66% 0.00 in 35 W/m2
07:30 59.8 °F 48.4 °F 30.08 in ENE 2 mph 2 mph 66% 0.00 in 148 W/m2
07:35 59.9 °F 48.5 °F 30.08 in NW 1 mph 2 mph 66% 0.00 in 144 W/m2
07:40 59.9 °F 48.1 °F 30.08 in East 2 mph 3 mph 65% 0.00 in 221 W/m2
07:45 60 °F 48.2 °F 30.08 in NE 2 mph 3 mph 65% 0.00 in 244 W/m2
07:50 60.1 °F 47.9 °F 30.07 in East 2 mph 3 mph 64% 0.00 in 257 W/m2
07:55 60.2 °F 48 °F 30.08 in ENE 2 mph 3 mph 64% 0.00 in 271 W/m2
08:00 60.3 °F 48.1 °F 30.07 in SE 2 mph 2 mph 64% 0.00 in 287 W/m2
08:05 60.4 °F 47.7 °F 30.07 in East 2 mph 4 mph 63% 0.00 in 304 W/m2
08:10 60.5 °F 47.4 °F 30.08 in ESE 3 mph 3 mph 62% 0.00 in 323 W/m2
08:15 60.7 °F 47.2 °F 30.08 in ESE 3 mph 3 mph 61% 0.00 in 346 W/m2
08:20 60.8 °F 46.8 °F 30.08 in East 3 mph 3 mph 60% 0.00 in 327 W/m2
08:25 61 °F 47 °F 30.08 in NNW 3 mph 3 mph 60% 0.00 in 417 W/m2
08:30 61.1 °F 47.1 °F 30.08 in East 2 mph 2 mph 60% 0.00 in 459 W/m2
08:35 61.2 °F 47.2 °F 30.09 in NE 2 mph 2 mph 60% 0.00 in 206 W/m2
08:40 61.4 °F 46.9 °F 30.09 in SE 2 mph 4 mph 59% 0.00 in 323 W/m2
08:45 61.5 °F 47 °F 30.09 in ESE 2 mph 4 mph 59% 0.00 in 461 W/m2
08:50 61.6 °F 47.1 °F 30.09 in North 2 mph 2 mph 59% 0.00 in 355 W/m2
08:55 61.8 °F 47.3 °F 30.09 in ENE 2 mph 3 mph 59% 0.00 in 385 W/m2
09:00 61.8 °F 46.9 °F 30.09 in East 2 mph 2 mph 58% 0.00 in 294 W/m2
09:05 62 °F 47 °F 30.10 in NE 2 mph 2 mph 58% 0.00 in 494 W/m2
09:10 62.1 °F 46.7 °F 30.09 in NE 1 mph 2 mph 57% 0.00 in 345 W/m2
09:15 62.2 °F 46.8 °F 30.09 in ENE 1 mph 2 mph 57% 0.00 in 329 W/m2
09:20 62.3 °F 47.3 °F 30.09 in ENE 1 mph 1 mph 58% 0.00 in 329 W/m2
09:25 62.6 °F 49 °F 30.09 in NNW 1 mph 1 mph 61% 0.00 in 410 W/m2
09:30 62.8 °F 49.6 °F 30.10 in ENE 2 mph 4 mph 62% 0.00 in 496 W/m2
09:35 62.9 °F 49.7 °F 30.10 in North 2 mph 4 mph 62% 0.00 in 390 W/m2
09:40 63.1 °F 50.3 °F 30.10 in NNE 2 mph 2 mph 63% 0.00 in 404 W/m2
09:45 63.2 °F 50.4 °F 30.10 in NNW 2 mph 2 mph 63% 0.00 in 374 W/m2
09:50 63.2 °F 50 °F 30.10 in NNE 2 mph 2 mph 62% 0.00 in 373 W/m2
09:55 63.1 °F 49.9 °F 30.10 in North 2 mph 2 mph 62% 0.00 in 615 W/m2
10:00 63.1 °F 49.9 °F 30.10 in ENE 2 mph 2 mph 62% 0.00 in 346 W/m2
10:05 63 °F 49.8 °F 30.10 in ESE 2 mph 2 mph 62% 0.00 in 302 W/m2
10:10 63 °F 49.8 °F 30.10 in North 2 mph 4 mph 62% 0.00 in 554 W/m2
10:15 63.1 °F 49.4 °F 30.10 in NW 2 mph 4 mph 61% 0.00 in 487 W/m2
10:20 63.1 °F 49.4 °F 30.10 in ESE 2 mph 2 mph 61% 0.00 in 654 W/m2
10:25 63.1 °F 49.4 °F 30.10 in ENE 2 mph 2 mph 61% 0.00 in 687 W/m2
10:30 63.2 °F 49.5 °F 30.10 in NW 2 mph 3 mph 61% 0.00 in 691 W/m2
10:35 63.3 °F 49.2 °F 30.10 in North 2 mph 4 mph 60% 0.00 in 608 W/m2
10:40 63.3 °F 49.2 °F 30.10 in North 3 mph 4 mph 60% 0.00 in 563 W/m2
10:45 63.3 °F 49.6 °F 30.10 in NNE 3 mph 5 mph 61% 0.00 in 751 W/m2
10:50 63.3 °F 49.6 °F 30.10 in North 3 mph 4 mph 61% 0.00 in 403 W/m2
10:55 63.3 °F 49.6 °F 30.10 in NNW 3 mph 4 mph 61% 0.00 in 768 W/m2
11:00 63.3 °F 49.2 °F 30.10 in SW 3 mph 3 mph 60% 0.00 in 745 W/m2
11:05 63.4 °F 49.7 °F 30.10 in SE 3 mph 3 mph 61% 0.00 in 615 W/m2
11:10 63.5 °F 49.8 °F 30.10 in NNW 2 mph 3 mph 61% 0.00 in 482 W/m2
11:15 63.5 °F 49.8 °F 30.10 in ENE 2 mph 3 mph 61% 0.00 in 585 W/m2
11:20 63.4 °F 50.1 °F 30.10 in ENE 3 mph 3 mph 62% 0.00 in 768 W/m2
11:25 63.3 °F 50.1 °F 30.09 in ENE 3 mph 3 mph 62% 0.00 in 768 W/m2
11:30 63.4 °F 50.1 °F 30.09 in ENE 3 mph 5 mph 62% 0.00 in 816 W/m2
11:35 63.5 °F 50.2 °F 30.09 in NNW 3 mph 6 mph 62% 0.00 in 821 W/m2
11:40 63.6 °F 49.9 °F 30.09 in NNW 3 mph 3 mph 61% 0.00 in 828 W/m2
11:45 63.8 °F 50.1 °F 30.10 in NNW 3 mph 3 mph 61% 0.00 in 833 W/m2
11:50 64 °F 49.8 °F 30.11 in NNE 4 mph 4 mph 60% 0.00 in 842 W/m2
11:55 64.1 °F 50.4 °F 30.10 in NW 4 mph 5 mph 61% 0.00 in 849 W/m2
12:00 64.3 °F 50.1 °F 30.10 in East 3 mph 3 mph 60% 0.00 in 856 W/m2
12:05 64.5 °F 50.7 °F 30.10 in East 3 mph 4 mph 61% 0.00 in 865 W/m2
12:10 64.8 °F 50.6 °F 30.10 in North 2 mph 3 mph 60% 0.00 in 870 W/m2
12:15 64.9 °F 50.7 °F 30.10 in North 3 mph 3 mph 60% 0.00 in 874 W/m2
12:20 65 °F 49.9 °F 30.10 in North 3 mph 3 mph 58% 0.00 in 882 W/m2
12:25 65.1 °F 50 °F 30.10 in NE 3 mph 3 mph 58% 0.00 in 884 W/m2
12:30 65.4 °F 50.7 °F 30.10 in NNW 2 mph 3 mph 59% 0.00 in 891 W/m2
12:35 65.9 °F 50.7 °F 30.09 in North 3 mph 3 mph 58% 0.00 in 896 W/m2
12:40 66.4 °F 51.6 °F 30.10 in ENE 2 mph 5 mph 59% 0.00 in 900 W/m2
12:45 66.3 °F 50.6 °F 30.10 in NW 2 mph 5 mph 57% 0.00 in 904 W/m2
12:50 66.7 °F 50 °F 30.10 in NE 2 mph 2 mph 55% 0.00 in 909 W/m2
12:55 66.3 °F 49.6 °F 30.09 in East 2 mph 2 mph 55% 0.00 in 912 W/m2
13:00 66 °F 50.3 °F 30.09 in SE 3 mph 3 mph 57% 0.00 in 912 W/m2
13:05 66.2 °F 50 °F 30.09 in North 3 mph 3 mph 56% 0.00 in 918 W/m2
13:10 66.3 °F 48.7 °F 30.08 in NE 3 mph 3 mph 53% 0.00 in 919 W/m2
13:15 66 °F 48.9 °F 30.08 in South 3 mph 3 mph 54% 0.00 in 921 W/m2
13:20 66.5 °F 47.3 °F 30.08 in ESE 3 mph 3 mph 50% 0.00 in 919 W/m2
13:25 66.9 °F 48.2 °F 30.08 in ENE 2 mph 3 mph 51% 0.00 in 921 W/m2
13:30 66.8 °F 47.6 °F 30.08 in ENE 3 mph 4 mph 50% 0.00 in 923 W/m2
13:35 67.4 °F 47 °F 30.07 in SE 3 mph 4 mph 48% 0.00 in 925 W/m2
13:40 66.6 °F 47.4 °F 30.07 in East 2 mph 2 mph 50% 0.00 in 926 W/m2
13:45 67.1 °F 45.6 °F 30.07 in South 2 mph 2 mph 46% 0.00 in 928 W/m2
13:50 67.4 °F 46.5 °F 30.07 in North 2 mph 2 mph 47% 0.00 in 930 W/m2
13:55 67.5 °F 46 °F 30.07 in East 2 mph 2 mph 46% 0.00 in 923 W/m2
14:00 68 °F 46.4 °F 30.07 in NE 2 mph 2 mph 46% 0.00 in 930 W/m2
14:11 67.7 °F 45 °F 30.06 in NNE 2 mph 2 mph 44% 0.00 in 921 W/m2
14:15 67.7 °F 46.2 °F 30.06 in NE 2 mph 2 mph 46% 0.00 in 925 W/m2
14:20 66.7 °F 45.8 °F 30.06 in NNE 2 mph 2 mph 47% 0.00 in 918 W/m2
14:25 66.9 °F 46 °F 30.06 in NNW 2 mph 5 mph 47% 0.00 in 914 W/m2
14:30 67.7 °F 47.3 °F 30.06 in East 2 mph 5 mph 48% 0.00 in 912 W/m2
14:35 67.4 °F 46.5 °F 30.06 in NNE 3 mph 3 mph 47% 0.00 in 909 W/m2
14:40 67.8 °F 47.4 °F 30.06 in NE 3 mph 5 mph 48% 0.00 in 902 W/m2
14:45 67.7 °F 47.3 °F 30.05 in ENE 3 mph 3 mph 48% 0.00 in 898 W/m2
14:50 67.5 °F 48.7 °F 30.05 in North 2 mph 3 mph 51% 0.00 in 893 W/m2
14:55 67.5 °F 47.1 °F 30.05 in East 1 mph 1 mph 48% 0.00 in 895 W/m2
15:00 67.4 °F 46.5 °F 30.05 in East 1 mph 1 mph 47% 0.00 in 882 W/m2
15:05 66.8 °F 45.3 °F 30.05 in South 1 mph 3 mph 46% 0.00 in 884 W/m2
15:10 66.5 °F 46.2 °F 30.04 in NE 2 mph 2 mph 48% 0.00 in 874 W/m2
15:15 66.6 °F 46.8 °F 30.04 in East 2 mph 2 mph 49% 0.00 in 875 W/m2
15:20 67.2 °F 46.3 °F 30.04 in SSW 1 mph 2 mph 47% 0.00 in 868 W/m2
15:25 67.1 °F 46.2 °F 30.04 in SSW 1 mph 2 mph 47% 0.00 in 863 W/m2
15:30 66.8 °F 45.9 °F 30.04 in SSW 1 mph 2 mph 47% 0.00 in 826 W/m2
15:35 66.7 °F 46.4 °F 30.03 in NW 2 mph 2 mph 48% 0.00 in 840 W/m2
15:40 66.8 °F 47 °F 30.04 in WSW 2 mph 2 mph 49% 0.00 in 835 W/m2
15:45 67.2 °F 47.9 °F 30.03 in NW 2 mph 5 mph 50% 0.00 in 821 W/m2
15:50 68.1 °F 48.2 °F 30.03 in NNE 2 mph 2 mph 49% 0.00 in 817 W/m2
15:55 68.8 °F 49.4 °F 30.03 in North 3 mph 3 mph 50% 0.00 in 809 W/m2
16:00 68.6 °F 48.7 °F 30.03 in NE 2 mph 2 mph 49% 0.00 in 796 W/m2
16:05 68.6 °F 49.2 °F 30.03 in NE 2 mph 2 mph 50% 0.00 in 788 W/m2
16:10 68.5 °F 49.7 °F 30.03 in East 2 mph 2 mph 51% 0.00 in 779 W/m2
16:15 68.9 °F 49.5 °F 30.02 in ESE 2 mph 2 mph 50% 0.00 in 772 W/m2
16:20 69.1 °F 49.1 °F 30.02 in ENE 2 mph 2 mph 49% 0.00 in 759 W/m2
16:25 68.6 °F 49.7 °F 30.02 in ENE 2 mph 2 mph 51% 0.00 in 751 W/m2
16:30 68.8 °F 50.5 °F 30.02 in NE 2 mph 3 mph 52% 0.00 in 742 W/m2
16:35 68.8 °F 49.9 °F 30.02 in NNE 2 mph 3 mph 51% 0.00 in 728 W/m2
16:40 68.5 °F 50.2 °F 30.02 in ENE 2 mph 3 mph 52% 0.00 in 707 W/m2
16:45 68.6 °F 50.3 °F 30.02 in NE 2 mph 3 mph 52% 0.00 in 703 W/m2
16:50 68.9 °F 50 °F 30.02 in North 2 mph 2 mph 51% 0.00 in 686 W/m2
16:55 68.9 °F 50 °F 30.02 in NE 2 mph 2 mph 51% 0.00 in 679 W/m2
Sand Point, Michigan, USA
Compliments of Weather Underground - 2 mb